Time;durP1;ratioP1;P1;durP2;ratioP2;P2;SDS_P1;SDS_P2;PMS_P1;PMS_P2;Temp;Humidity;BMP_temperature;BMP_pressure;BME280_temperature;BME280_humidity;BME280_pressure;Samples;Min_cycle;Max_cycle;Signal;HPM_P1;HPM_P2
2023/01/25 00:01:25;;;;;;;5.55;4.90;;;20.30;54.60;;;;;;4980426;28;87608;-82
2023/01/25 00:03:51;;;;;;;4.57;4.18;;;20.30;54.60;;;;;;4986616;28;87124;-82
2023/01/25 00:06:16;;;;;;;4.78;4.38;;;20.30;54.50;;;;;;4987520;28;88276;-81
2023/01/25 00:08:42;;;;;;;4.85;4.45;;;20.30;54.50;;;;;;4983054;28;90443;-81
2023/01/25 00:11:07;;;;;;;5.03;4.60;;;20.30;54.50;;;;;;4988802;28;87774;-82
2023/01/25 00:13:33;;;;;;;5.07;4.57;;;20.30;54.60;;;;;;4982541;28;86988;-81
2023/01/25 00:16:03;;;;;;;4.55;4.15;;;20.20;54.60;;;;;;4985446;28;87325;-81
2023/01/25 00:18:29;;;;;;;5.22;4.70;;;20.20;54.50;;;;;;4979631;28;90723;-82
2023/01/25 00:20:55;;;;;;;4.80;4.30;;;20.20;54.70;;;;;;4981422;28;90386;-81
2023/01/25 00:23:20;;;;;;;4.97;4.47;;;20.20;54.60;;;;;;4982937;28;87282;-82
2023/01/25 00:25:46;;;;;;;5.55;4.90;;;20.20;54.70;;;;;;4980655;28;88342;-82
2023/01/25 00:28:11;;;;;;;5.85;4.70;;;20.10;54.70;;;;;;4983604;28;87619;-82
2023/01/25 00:30:37;;;;;;;5.60;5.10;;;20.10;54.80;;;;;;4983891;28;87792;-82
2023/01/25 00:33:14;;;;;;;5.43;4.93;;;20.10;54.70;;;;;;4989139;28;86924;-82
2023/01/25 00:35:40;;;;;;;5.88;5.05;;;20.10;54.90;;;;;;4984919;28;86885;-82
2023/01/25 00:38:37;;;;;;;5.18;4.78;;;20.00;54.80;;;;;;4987921;28;88258;-81
2023/01/25 00:41:02;;;;;;;4.82;4.43;;;20.00;54.70;;;;;;4981536;28;92866;-82
2023/01/25 00:43:28;;;;;;;5.20;4.70;;;20.00;54.70;;;;;;4986667;28;88164;-81
2023/01/25 00:46:00;;;;;;;4.88;4.38;;;20.00;54.70;;;;;;4989209;28;87129;-82
2023/01/25 00:48:25;;;;;;;5.38;4.88;;;20.00;54.70;;;;;;4984302;28;87108;-82
2023/01/25 00:50:51;;;;;;;4.63;4.22;;;20.00;54.70;;;;;;4984156;28;87257;-82
2023/01/25 00:53:16;;;;;;;5.68;4.95;;;20.00;54.60;;;;;;4991324;28;86926;-82
2023/01/25 00:55:53;;;;;;;5.25;4.78;;;19.90;54.60;;;;;;4988207;28;86789;-82
2023/01/25 00:58:20;;;;;;;5.07;4.57;;;19.90;54.70;;;;;;4986174;28;88179;-81
2023/01/25 01:00:46;;;;;;;5.18;4.68;;;19.90;54.70;;;;;;4988166;28;86877;-81
2023/01/25 01:03:12;;;;;;;5.25;4.80;;;19.90;54.80;;;;;;4991082;28;87034;-82
2023/01/25 01:05:37;;;;;;;5.40;4.90;;;19.80;54.70;;;;;;4986149;28;87065;-81
2023/01/25 01:08:03;;;;;;;5.47;4.97;;;19.90;54.80;;;;;;4988411;28;88453;-81
2023/01/25 01:10:29;;;;;;;4.93;4.53;;;19.80;54.60;;;;;;4985432;28;87844;-81
2023/01/25 01:12:54;;;;;;;5.32;4.82;;;19.80;54.70;;;;;;4990987;28;87416;-82
2023/01/25 01:15:20;;;;;;;5.47;4.97;;;19.80;54.60;;;;;;4986640;28;87296;-82
2023/01/25 01:17:46;;;;;;;4.60;4.20;;;19.80;54.70;;;;;;4990946;28;88189;-82
2023/01/25 01:20:12;;;;;;;5.20;4.72;;;19.80;54.60;;;;;;4991003;28;88238;-82
2023/01/25 01:22:37;;;;;;;5.25;4.75;;;19.80;54.60;;;;;;4982191;28;86907;-82
2023/01/25 01:25:03;;;;;;;5.22;4.82;;;19.70;54.80;;;;;;4986734;28;86311;-81
2023/01/25 01:27:29;;;;;;;5.68;5.18;;;19.70;54.80;;;;;;4993387;28;88652;-82
2023/01/25 01:29:54;;;;;;;5.13;4.65;;;19.70;54.80;;;;;;4994182;28;87238;-82
2023/01/25 01:32:20;;;;;;;5.40;4.90;;;19.70;54.80;;;;;;4982698;28;88146;-82
2023/01/25 01:34:48;;;;;;;5.50;5.00;;;19.70;54.80;;;;;;4990913;28;87139;-81
2023/01/25 01:37:14;;;;;;;5.55;5.05;;;19.70;54.80;;;;;;4991069;28;87661;-82
2023/01/25 01:39:39;;;;;;;5.20;4.80;;;19.70;54.80;;;;;;4982767;28;88390;-81
2023/01/25 01:42:05;;;;;;;5.32;4.82;;;19.60;54.80;;;;;;4984372;28;87088;-81
2023/01/25 01:44:50;;;;;;;5.70;5.20;;;19.60;54.90;;;;;;4983204;28;87271;-81
2023/01/25 01:47:29;;;;;;;5.60;5.10;;;19.60;55.50;;;;;;4995159;28;88616;-81
2023/01/25 01:50:03;;;;;;;;;;;19.60;55.00;;;;;;4988994;28;87192;-81
2023/01/25 01:52:34;;;;;;;5.25;4.75;;;19.60;54.60;;;;;;4987645;28;87333;-82
2023/01/25 01:55:22;;;;;;;6.07;5.47;;;19.60;54.60;;;;;;4983180;28;87045;-82
2023/01/25 01:57:52;;;;;;;5.40;4.90;;;19.60;54.60;;;;;;4981100;28;88623;-81
2023/01/25 02:00:29;;;;;;;5.70;5.20;;;19.60;54.70;;;;;;4986645;28;88348;-81
2023/01/25 02:02:55;;;;;;;5.63;5.13;;;19.60;54.60;;;;;;4989691;28;87063;-81
2023/01/25 02:05:31;;;;;;;4.72;4.32;;;19.60;54.80;;;;;;4988982;28;87163;-81
2023/01/25 02:07:57;;;;;;;6.13;5.20;;;19.50;54.70;;;;;;4984026;28;88416;-82
2023/01/25 02:10:25;;;;;;;5.53;5.03;;;19.50;54.70;;;;;;4985932;28;88346;-82
2023/01/25 02:12:54;;;;;;;5.75;5.25;;;19.50;54.70;;;;;;4991738;28;87532;-82
2023/01/25 02:15:20;;;;;;;6.20;5.70;;;19.50;54.70;;;;;;4987233;28;87562;-82
2023/01/25 02:17:47;;;;;;;5.53;5.03;;;19.50;54.70;;;;;;4983252;28;88330;-81
2023/01/25 02:20:38;;;;;;;5.78;5.22;;;19.50;54.70;;;;;;4986487;28;87397;-81
2023/01/25 02:23:09;;;;;;;5.93;5.38;;;19.40;54.80;;;;;;4986730;28;87987;-82
2023/01/25 02:25:35;;;;;;;5.68;5.18;;;19.50;54.70;;;;;;4994462;28;89222;-81
2023/01/25 02:28:11;;;;;;;5.70;5.20;;;19.40;54.50;;;;;;4983274;28;88738;-81
2023/01/25 02:30:37;;;;;;;5.50;5.00;;;19.40;54.70;;;;;;4982235;28;88052;-81
2023/01/25 02:33:03;;;;;;;5.53;5.03;;;19.40;54.80;;;;;;4978046;28;87294;-81
2023/01/25 02:35:50;;;;;;;5.90;5.40;;;19.40;54.90;;;;;;4983912;28;87543;-81
2023/01/25 02:38:17;;;;;;;5.85;5.32;;;19.40;54.80;;;;;;4988514;28;88182;-81
2023/01/25 02:41:01;;;;;;;5.53;5.03;;;19.40;54.70;;;;;;4985959;28;87895;-81
2023/01/25 02:43:32;;;;;;;5.43;4.97;;;19.40;54.70;;;;;;4980017;28;86938;-81
2023/01/25 02:46:10;;;;;;;6.43;5.85;;;19.40;54.80;;;;;;4976205;28;87451;-82
2023/01/25 02:48:36;;;;;;;5.70;4.93;;;19.30;54.80;;;;;;4978259;28;89210;-81
2023/01/25 02:51:05;;;;;;;5.65;5.15;;;19.30;54.80;;;;;;4985889;28;89158;-81
2023/01/25 02:53:30;;;;;;;5.72;5.22;;;19.30;54.80;;;;;;4982844;28;87019;-81
2023/01/25 02:55:56;;;;;;;5.35;4.85;;;19.30;54.80;;;;;;4987704;28;87306;-81
2023/01/25 02:58:21;;;;;;;6.25;5.75;;;19.30;54.80;;;;;;4988617;28;88122;-81
2023/01/25 03:00:47;;;;;;;5.47;4.97;;;19.30;54.70;;;;;;4994139;28;87295;-81
2023/01/25 03:03:13;;;;;;;5.57;5.15;;;19.30;54.80;;;;;;4988955;28;87045;-81
2023/01/25 03:05:38;;;;;;;6.20;5.60;;;19.20;54.70;;;;;;4986106;28;87312;-81
2023/01/25 03:08:04;;;;;;;5.15;4.75;;;19.20;54.80;;;;;;4985047;28;89448;-81
2023/01/25 03:10:29;;;;;;;6.13;5.57;;;19.20;54.70;;;;;;4993261;28;88285;-81
2023/01/25 03:12:55;;;;;;;6.28;5.65;;;19.20;54.60;;;;;;4981639;28;88272;-81
2023/01/25 03:15:21;;;;;;;6.38;5.78;;;19.20;54.70;;;;;;4984020;28;87416;-82
2023/01/25 03:17:46;;;;;;;5.53;4.93;;;19.20;54.70;;;;;;4980325;28;88255;-81
2023/01/25 03:20:12;;;;;;;5.82;5.32;;;19.20;54.60;;;;;;4981170;28;87736;-81
2023/01/25 03:22:37;;;;;;;5.68;5.18;;;19.20;54.80;;;;;;4978207;28;87078;-82
2023/01/25 03:25:03;;;;;;;6.95;6.35;;;19.20;54.80;;;;;;4981433;28;87400;-81
2023/01/25 03:27:29;;;;;;;6.78;6.03;;;19.20;54.90;;;;;;4991004;28;87934;-82
2023/01/25 03:29:55;;;;;;;5.68;5.18;;;19.20;54.70;;;;;;4986015;28;88818;-82
2023/01/25 03:32:23;;;;;;;5.65;5.15;;;19.10;54.70;;;;;;4986803;28;87395;-82
2023/01/25 03:34:49;;;;;;;5.90;5.40;;;19.10;54.90;;;;;;4985660;28;87252;-81
2023/01/25 03:37:17;;;;;;;5.63;5.20;;;19.10;54.80;;;;;;4990656;28;89290;-81
2023/01/25 03:39:42;;;;;;;6.30;5.70;;;19.10;54.70;;;;;;4985535;28;88201;-81
2023/01/25 03:42:08;;;;;;;5.45;5.00;;;19.10;54.70;;;;;;4975562;28;86833;-82
2023/01/25 03:44:34;;;;;;;6.07;5.47;;;19.10;54.80;;;;;;4988523;28;87434;-81
2023/01/25 03:46:59;;;;;;;5.97;5.47;;;19.10;54.80;;;;;;4979691;28;89146;-81
2023/01/25 03:49:26;;;;;;;5.57;5.07;;;19.10;54.80;;;;;;4989050;28;87257;-81
2023/01/25 03:51:52;;;;;;;6.05;5.55;;;19.10;54.80;;;;;;4980483;28;86907;-81
2023/01/25 03:54:18;;;;;;;5.55;5.05;;;19.00;54.70;;;;;;4989858;28;87840;-81
2023/01/25 03:56:43;;;;;;;5.72;5.22;;;19.00;54.70;;;;;;4991711;28;88801;-81
2023/01/25 03:59:11;;;;;;;5.97;5.40;;;19.00;54.80;;;;;;4981308;28;87697;-81
2023/01/25 04:01:37;;;;;;;6.00;5.50;;;19.00;54.70;;;;;;4978107;28;88206;-81
2023/01/25 04:04:02;;;;;;;6.00;5.50;;;19.00;54.80;;;;;;4991673;28;89293;-81
2023/01/25 04:06:28;;;;;;;6.13;5.63;;;19.00;54.70;;;;;;4994905;28;87235;-81
2023/01/25 04:08:54;;;;;;;6.13;5.53;;;19.00;54.80;;;;;;4985725;28;88234;-81
2023/01/25 04:11:19;;;;;;;5.93;5.43;;;19.00;54.70;;;;;;4991829;28;87322;-81
2023/01/25 04:13:45;;;;;;;6.22;5.72;;;19.00;54.80;;;;;;4989144;28;87091;-82
2023/01/25 04:16:11;;;;;;;6.05;5.45;;;19.00;54.70;;;;;;4987652;28;88157;-81
2023/01/25 04:18:37;;;;;;;5.88;5.35;;;19.00;54.70;;;;;;4981817;28;89637;-82
2023/01/25 04:21:03;;;;;;;6.05;5.55;;;19.00;54.70;;;;;;4994923;28;86941;-82
2023/01/25 04:23:29;;;;;;;6.43;5.82;;;18.90;54.60;;;;;;4988316;28;87470;-82
2023/01/25 04:25:57;;;;;;;5.70;5.20;;;18.90;54.70;;;;;;4985255;28;88563;-82
2023/01/25 04:28:23;;;;;;;5.85;5.35;;;18.90;54.70;;;;;;4989974;28;88308;-81
2023/01/25 04:30:49;;;;;;;5.70;5.10;;;18.90;54.60;;;;;;4992986;28;86985;-81
2023/01/25 04:33:15;;;;;;;5.50;5.00;;;18.90;54.60;;;;;;4984615;28;87919;-81
2023/01/25 04:35:40;;;;;;;6.28;5.70;;;18.90;54.50;;;;;;4989831;28;88468;-81
2023/01/25 04:38:09;;;;;;;6.22;5.72;;;18.90;54.60;;;;;;4988540;28;88244;-81
2023/01/25 04:40:37;;;;;;;6.33;5.73;;;18.90;54.60;;;;;;4988076;28;86874;-81
2023/01/25 04:43:03;;;;;;;6.38;5.88;;;18.90;54.70;;;;;;4986705;28;87573;-81
2023/01/25 04:45:29;;;;;;;6.88;6.22;;;18.90;54.70;;;;;;4983348;28;90295;-81
2023/01/25 04:47:59;;;;;;;6.47;5.88;;;18.80;54.60;;;;;;4992599;28;88073;-81
2023/01/25 04:50:25;;;;;;;6.15;5.55;;;18.80;54.70;;;;;;4991703;28;88322;-81
2023/01/25 04:52:51;;;;;;;6.43;5.82;;;18.80;54.50;;;;;;4983795;28;87419;-81
2023/01/25 04:55:19;;;;;;;6.18;5.60;;;18.80;55.00;;;;;;4981475;28;88305;-82
2023/01/25 04:57:48;;;;;;;6.67;6.07;;;18.80;55.10;;;;;;4984892;28;88331;-82
2023/01/25 05:00:14;;;;;;;6.57;5.97;;;18.80;55.00;;;;;;4987622;28;87092;-81
2023/01/25 05:02:40;;;;;;;6.55;5.95;;;18.80;55.00;;;;;;4989525;28;86973;-81
2023/01/25 05:05:06;;;;;;;6.25;5.75;;;18.80;55.00;;;;;;4984609;28;87011;-81
2023/01/25 05:07:31;;;;;;;6.40;5.80;;;18.80;55.10;;;;;;4991919;28;87722;-81
2023/01/25 05:09:57;;;;;;;5.70;5.20;;;18.80;55.00;;;;;;4990404;28;87127;-81
2023/01/25 05:12:22;;;;;;;6.55;5.95;;;18.70;54.90;;;;;;4988328;28;87203;-81
2023/01/25 05:14:48;;;;;;;6.25;5.75;;;18.80;55.10;;;;;;4987781;28;89201;-81
2023/01/25 05:17:14;;;;;;;6.60;6.00;;;18.80;55.00;;;;;;4990602;28;89155;-81
2023/01/25 05:19:39;;;;;;;6.30;5.70;;;18.70;54.90;;;;;;4982677;28;86919;-81
2023/01/25 05:22:06;;;;;;;6.18;5.68;;;18.70;54.90;;;;;;4984170;28;87401;-81
2023/01/25 05:24:34;;;;;;;6.10;5.60;;;18.70;54.90;;;;;;4992953;28;87454;-81
2023/01/25 05:27:03;;;;;;;6.07;5.57;;;18.70;55.00;;;;;;4989589;28;87302;-81
2023/01/25 05:29:31;;;;;;;6.85;6.25;;;18.70;54.70;;;;;;4988476;28;86844;-81
2023/01/25 05:31:58;;;;;;;6.03;5.47;;;18.70;54.70;;;;;;4982890;28;88682;-82
2023/01/25 05:34:25;;;;;;;6.20;5.60;;;18.70;54.70;;;;;;4994642;28;87702;-81
2023/01/25 05:36:50;;;;;;;6.88;6.28;;;18.70;54.80;;;;;;4983048;28;87725;-81
2023/01/25 05:39:16;;;;;;;5.93;5.43;;;18.70;54.90;;;;;;4984266;28;87988;-81
2023/01/25 05:41:44;;;;;;;6.20;5.70;;;18.70;54.70;;;;;;4986267;28;87126;-82
2023/01/25 05:44:10;;;;;;;6.82;6.20;;;18.70;54.80;;;;;;4991009;28;88094;-82
2023/01/25 05:46:35;;;;;;;6.03;5.53;;;18.70;54.70;;;;;;4991458;28;87801;-81
2023/01/25 05:49:01;;;;;;;5.97;5.47;;;18.60;54.90;;;;;;4980472;28;86981;-82
2023/01/25 05:51:26;;;;;;;6.18;5.50;;;18.70;55.00;;;;;;4990718;28;87265;-81
2023/01/25 05:53:55;;;;;;;5.88;5.38;;;18.70;54.70;;;;;;4984382;28;88120;-81
2023/01/25 05:56:22;;;;;;;13.25;7.72;;;18.70;54.50;;;;;;4987691;28;88411;-81
2023/01/25 05:58:52;;;;;;;7.72;6.63;;;18.60;53.90;;;;;;4993593;28;87412;-81
2023/01/25 06:01:25;;;;;;;8.48;7.18;;;18.60;54.00;;;;;;4983258;28;87134;-81
2023/01/25 06:03:51;;;;;;;6.22;5.63;;;18.60;54.30;;;;;;4990886;28;88466;-82
2023/01/25 06:06:17;;;;;;;8.68;6.70;;;18.70;54.60;;;;;;4987761;28;88894;-82
2023/01/25 06:08:43;;;;;;;7.05;6.38;;;18.80;54.90;;;;;;4986262;28;87376;-81
2023/01/25 06:11:10;;;;;;;7.90;6.22;;;18.80;54.90;;;;;;4992426;28;86994;-81
2023/01/25 06:13:36;;;;;;;6.28;5.20;;;18.90;54.70;;;;;;4977749;28;89808;-81
2023/01/25 06:16:03;;;;;;;5.55;4.97;;;19.00;54.70;;;;;;4992358;28;88324;-82
2023/01/25 06:18:41;;;;;;;7.80;5.72;;;19.10;54.60;;;;;;4991824;28;87260;-83
2023/01/25 06:21:06;;;;;;;5.03;4.53;;;19.30;54.40;;;;;;5002480;28;88027;-82
2023/01/25 06:23:32;;;;;;;7.22;5.70;;;19.50;54.40;;;;;;4997126;28;88115;-83
2023/01/25 06:26:04;;;;;;;8.38;5.43;;;19.60;54.10;;;;;;5005110;28;87113;-82
2023/01/25 06:28:31;;;;;;;7.65;5.05;;;19.70;54.00;;;;;;5009669;28;95146;-82
2023/01/25 06:31:06;;;;;;;5.20;4.70;;;19.80;53.90;;;;;;4994657;28;87319;-82
2023/01/25 06:33:32;;;;;;;5.50;4.85;;;19.90;53.90;;;;;;5002949;28;88607;-82
2023/01/25 06:36:00;;;;;;;5.72;5.15;;;20.00;53.70;;;;;;5010310;28;88331;-82
2023/01/25 06:38:25;;;;;;;5.35;4.68;;;20.00;53.50;;;;;;5008647;28;86889;-82
2023/01/25 06:40:51;;;;;;;5.25;4.75;;;20.00;53.40;;;;;;5003070;28;87579;-82
2023/01/25 06:43:16;;;;;;;5.40;4.47;;;19.90;53.30;;;;;;5007716;28;88013;-82
2023/01/25 06:45:42;;;;;;;5.30;4.10;;;19.90;53.40;;;;;;5008400;28;87744;-82
2023/01/25 06:48:07;;;;;;;6.00;4.80;;;19.80;53.40;;;;;;5004601;28;87309;-82
2023/01/25 06:50:33;;;;;;;5.55;5.05;;;19.80;53.50;;;;;;5002026;28;87066;-83
2023/01/25 06:53:01;;;;;;;6.45;5.00;;;19.70;53.70;;;;;;4987931;28;89681;-83
2023/01/25 06:55:27;;;;;;;6.13;4.93;;;19.60;53.80;;;;;;4985053;28;89345;-81
2023/01/25 06:57:52;;;;;;;8.15;5.30;;;19.60;53.70;;;;;;4988439;28;87283;-83
2023/01/25 07:00:18;;;;;;;7.40;6.70;;;19.80;53.60;;;;;;4982891;28;87553;-83
2023/01/25 07:02:44;;;;;;;8.95;6.90;;;19.80;53.10;;;;;;4987201;28;88586;-83
2023/01/25 07:05:09;;;;;;;10.60;7.28;;;19.80;52.20;;;;;;4993638;28;88150;-83
2023/01/25 07:07:35;;;;;;;7.32;5.97;;;19.80;51.90;;;;;;4990200;28;86922;-84
2023/01/25 07:10:01;;;;;;;9.50;7.28;;;19.90;52.80;;;;;;4985856;28;87539;-83
2023/01/25 07:12:30;;;;;;;8.70;6.53;;;19.90;52.80;;;;;;4977781;28;91694;-83
2023/01/25 07:14:55;;;;;;;14.07;8.00;;;20.00;53.50;;;;;;4988779;28;88311;-84
2023/01/25 07:17:21;;;;;;;11.45;7.57;;;20.00;53.60;;;;;;4985974;28;87839;-83
2023/01/25 07:19:49;;;;;;;7.82;7.03;;;20.10;54.50;;;;;;4985511;28;87475;-83
2023/01/25 07:22:16;;;;;;;9.32;7.13;;;20.10;53.90;;;;;;4990120;28;87406;-82
2023/01/25 07:24:48;;;;;;;8.90;7.55;;;20.10;54.10;;;;;;4990205;28;88063;-83
2023/01/25 07:27:16;;;;;;;10.27;7.65;;;20.10;54.20;;;;;;4988669;28;86883;-83
2023/01/25 07:29:42;;;;;;;11.80;7.38;;;20.00;54.00;;;;;;4997666;28;87331;-84
2023/01/25 07:32:08;;;;;;;9.48;6.82;;;20.10;53.80;;;;;;4991617;28;87977;-83
2023/01/25 07:34:34;;;;;;;7.88;6.50;;;20.00;53.90;;;;;;4975740;28;88532;-83
2023/01/25 07:36:59;;;;;;;8.20;6.57;;;20.00;54.00;;;;;;4992914;28;87189;-83
2023/01/25 07:39:33;;;;;;;10.65;7.05;;;19.90;54.40;;;;;;4987027;28;86910;-84
2023/01/25 07:41:58;;;;;;;8.35;6.68;;;19.90;54.60;;;;;;4988593;28;89053;-83
2023/01/25 07:44:24;;;;;;;12.20;7.15;;;19.90;54.60;;;;;;4985497;28;88890;-83
2023/01/25 07:46:49;;;;;;;10.05;6.88;;;19.90;54.70;;;;;;4988584;28;86939;-83
2023/01/25 07:49:16;;;;;;;13.02;5.97;;;19.90;54.60;;;;;;4986587;28;87218;-83
2023/01/25 07:51:41;;;;;;;10.05;6.30;;;20.00;54.60;;;;;;4992177;28;87683;-83
2023/01/25 07:54:11;;;;;;;7.68;6.05;;;20.10;54.50;;;;;;4992725;28;87945;-83
2023/01/25 07:56:39;;;;;;;8.82;6.05;;;20.10;54.50;;;;;;4997231;28;87411;-83
2023/01/25 07:59:07;;;;;;;8.07;6.28;;;20.20;54.40;;;;;;4989789;28;90879;-84
2023/01/25 08:01:33;;;;;;;16.17;9.02;;;20.20;54.20;;;;;;4997318;28;89732;-84
2023/01/25 08:03:59;;;;;;;13.43;8.13;;;20.20;53.40;;;;;;4994190;28;88332;-84
2023/01/25 08:06:29;;;;;;;9.75;7.72;;;20.20;53.70;;;;;;4999731;28;88282;-84
2023/01/25 08:08:56;;;;;;;10.10;7.22;;;20.10;54.10;;;;;;4992499;28;87074;-84
2023/01/25 08:11:33;;;;;;;10.85;8.13;;;20.10;54.10;;;;;;4984957;28;90542;-83
2023/01/25 08:14:00;;;;;;;12.32;7.93;;;20.10;54.20;;;;;;4992247;28;88389;-82
2023/01/25 08:16:26;;;;;;;13.75;8.35;;;20.10;54.30;;;;;;4991142;28;87118;-84
2023/01/25 08:18:54;;;;;;;13.02;7.25;;;20.10;54.30;;;;;;4995971;28;87635;-84
2023/01/25 08:21:23;;;;;;;12.20;7.78;;;20.10;54.40;;;;;;4932012;28;87896;-84
2023/01/25 08:23:48;;;;;;;11.48;7.68;;;20.10;54.40;;;;;;4989207;28;88367;-84
2023/01/25 08:26:17;;;;;;;8.88;7.30;;;20.20;54.40;;;;;;4996240;28;86917;-83
2023/01/25 08:28:43;;;;;;;9.10;6.80;;;20.20;54.30;;;;;;4995183;28;91267;-83
2023/01/25 08:31:08;;;;;;;9.13;7.35;;;20.20;54.30;;;;;;4975436;28;89369;-83
2023/01/25 08:33:34;;;;;;;13.50;8.80;;;20.20;54.40;;;;;;4996295;28;88169;-83
2023/01/25 08:36:00;;;;;;;15.50;7.57;;;20.10;54.10;;;;;;4997616;28;87373;-83
2023/01/25 08:38:26;;;;;;;14.27;9.13;;;20.20;54.50;;;;;;4988797;28;87381;-84
2023/01/25 08:40:51;;;;;;;14.80;8.65;;;20.20;54.10;;;;;;4986574;28;90305;-84
2023/01/25 08:43:17;;;;;;;17.83;9.13;;;20.20;54.00;;;;;;4994138;28;87361;-83
2023/01/25 08:45:43;;;;;;;15.75;8.90;;;20.20;54.40;;;;;;4991788;28;86954;-83
2023/01/25 08:48:11;;;;;;;16.42;9.65;;;20.10;54.40;;;;;;4994417;28;86181;-83
2023/01/25 08:50:37;;;;;;;13.60;8.47;;;20.10;54.40;;;;;;4985946;28;87339;-83
2023/01/25 08:53:05;;;;;;;19.25;8.55;;;20.10;54.70;;;;;;4990722;28;87268;-84
2023/01/25 08:55:31;;;;;;;13.25;7.90;;;20.10;54.70;;;;;;4987825;28;87992;-84
2023/01/25 08:57:56;;;;;;;12.98;8.02;;;20.10;54.70;;;;;;4991868;28;87396;-84
2023/01/25 09:00:22;;;;;;;14.32;8.18;;;20.20;54.50;;;;;;4994009;28;88353;-84
2023/01/25 09:02:47;;;;;;;19.50;9.20;;;20.10;54.60;;;;;;4982661;28;88918;-84
2023/01/25 09:05:13;;;;;;;13.57;9.15;;;20.10;53.60;;;;;;4987652;28;86893;-83
2023/01/25 09:07:38;;;;;;;14.02;8.30;;;20.10;53.30;;;;;;4988066;28;86950;-82
2023/01/25 09:10:07;;;;;;;16.45;9.18;;;20.10;53.00;;;;;;4984514;28;88158;-83
2023/01/25 09:12:34;;;;;;;15.23;9.27;;;20.10;52.90;;;;;;4984695;28;86911;-83
2023/01/25 09:15:00;;;;;;;19.67;9.65;;;20.00;52.30;;;;;;4991680;28;87289;-83
2023/01/25 09:17:25;;;;;;;12.88;9.02;;;20.00;52.50;;;;;;4987238;28;87380;-83
2023/01/25 09:19:51;;;;;;;16.85;9.27;;;19.90;52.00;;;;;;4985807;28;88627;-83
2023/01/25 09:22:19;;;;;;;12.52;9.38;;;19.90;52.10;;;;;;4993991;28;88998;-83
2023/01/25 09:24:44;;;;;;;16.45;10.20;;;19.90;52.00;;;;;;4983421;28;87625;-84
2023/01/25 09:27:10;;;;;;;15.30;9.98;;;19.90;52.00;;;;;;4973419;28;87090;-83
2023/01/25 09:29:35;;;;;;;14.20;8.80;;;20.00;51.90;;;;;;4983365;28;88042;-83
2023/01/25 09:32:03;;;;;;;16.58;10.63;;;20.00;51.70;;;;;;4983994;28;90514;-82
2023/01/25 09:34:29;;;;;;;29.00;12.73;;;20.00;51.70;;;;;;4991736;28;87159;-83
2023/01/25 09:36:55;;;;;;;61.17;20.63;;;20.00;51.60;;;;;;4987256;28;87152;-83
2023/01/25 09:39:20;;;;;;;70.15;23.52;;;19.90;51.40;;;;;;4986294;28;89015;-83
2023/01/25 09:41:51;;;;;;;83.63;24.95;;;19.90;51.20;;;;;;4983399;28;88219;-83
2023/01/25 09:44:31;;;;;;;125.32;34.75;;;19.90;51.20;;;;;;4989801;28;88181;-83
2023/01/25 09:47:09;;;;;;;99.15;32.92;;;19.90;50.90;;;;;;4983070;28;87254;-83
2023/01/25 09:50:11;;;;;;;114.97;35.73;;;19.80;50.50;;;;;;4983048;28;88138;-83
2023/01/25 09:52:54;;;;;;;145.48;41.33;;;19.80;50.50;;;;;;4936516;28;89127;-83
2023/01/25 09:55:23;;;;;;;135.57;39.25;;;19.80;50.20;;;;;;4937032;28;88041;-83
2023/01/25 09:57:52;;;;;;;150.43;43.25;;;19.80;50.20;;;;;;4937594;28;87600;-84
2023/01/25 10:00:18;;;;;;;;;;;19.90;50.50;;;;;;4937814;28;88655;-84
2023/01/25 10:03:02;;;;;;;120.28;36.78;;;19.90;50.50;;;;;;4934785;28;86368;-85
2023/01/25 10:05:35;;;;;;;133.75;39.13;;;20.00;50.50;;;;;;4936306;28;87304;-85
2023/01/25 10:08:05;;;;;;;134.63;37.78;;;20.00;51.00;;;;;;4929420;28;87076;-85
2023/01/25 10:10:38;;;;;;;134.38;37.33;;;20.10;51.30;;;;;;4936365;28;89122;-84
2023/01/25 10:13:13;;;;;;;119.50;36.58;;;20.10;51.40;;;;;;4937885;28;89510;-84
2023/01/25 10:16:10;;;;;;;130.38;35.92;;;20.20;51.50;;;;;;4937901;28;87337;-84
2023/01/25 10:19:21;;;;;;;132.55;40.78;;;20.20;51.40;;;;;;4938950;28;87788;-84
2023/01/25 10:22:15;;;;;;;130.60;38.50;;;20.20;52.20;;;;;;4872858;28;88322;-84
2023/01/25 10:24:53;;;;;;;112.28;36.10;;;20.20;52.60;;;;;;4868079;28;88308;-84
2023/01/25 10:27:59;;;;;;;114.88;35.47;;;20.20;52.70;;;;;;4922906;28;86864;-84
2023/01/25 10:30:48;;;;;;;118.57;36.72;;;20.40;52.70;;;;;;4871765;28;86864;-84
2023/01/25 10:33:17;;;;;;;110.63;35.38;;;20.40;52.60;;;;;;4867932;28;88646;-84
2023/01/25 10:35:45;;;;;;;108.43;33.83;;;20.50;52.90;;;;;;4871359;28;88416;-84
2023/01/25 10:38:33;;;;;;;105.03;35.08;;;20.50;52.80;;;;;;4868355;28;88230;-83
2023/01/25 10:41:08;;;;;;;102.47;33.08;;;20.50;53.80;;;;;;4866780;28;90237;-83
2023/01/25 10:43:41;;;;;;;101.43;34.30;;;20.60;53.40;;;;;;4871067;28;88628;-84
2023/01/25 10:46:23;;;;;;;100.45;34.38;;;20.50;53.00;;;;;;4869630;28;87744;-84
2023/01/25 10:48:49;;;;;;;99.05;34.85;;;20.40;53.60;;;;;;4872266;28;87505;-84
2023/01/25 10:51:32;;;;;;;100.70;32.58;;;20.40;54.00;;;;;;4873203;28;95847;-83
2023/01/25 10:54:02;;;;;;;92.20;32.50;;;20.40;54.00;;;;;;4871296;28;88260;-84
2023/01/25 10:56:29;;;;;;;90.30;32.92;;;20.50;54.00;;;;;;4919418;28;87932;-84
2023/01/25 10:59:23;;;;;;;86.65;29.48;;;20.50;54.00;;;;;;4933648;28;87737;-84
2023/01/25 11:01:48;;;;;;;95.43;31.65;;;20.60;53.90;;;;;;4914744;28;91500;-84
2023/01/25 11:04:35;;;;;;;88.05;29.27;;;20.70;53.80;;;;;;4900563;28;89461;-83
2023/01/25 11:07:04;;;;;;;81.30;29.10;;;20.70;53.80;;;;;;4911095;28;92445;-84
2023/01/25 11:09:38;;;;;;;80.97;28.48;;;20.80;53.60;;;;;;4927804;28;87099;-83
2023/01/25 11:12:16;;;;;;;76.63;28.60;;;20.90;53.50;;;;;;4928932;28;87499;-83
2023/01/25 11:14:42;;;;;;;79.67;27.47;;;21.00;53.40;;;;;;4929266;28;88743;-84
2023/01/25 11:17:24;;;;;;;73.43;27.55;;;21.10;53.40;;;;;;4926011;28;87864;-84
2023/01/25 11:20:06;;;;;;;70.45;27.17;;;21.10;53.40;;;;;;4927414;28;87676;-84
2023/01/25 11:22:31;;;;;;;72.60;28.25;;;21.10;53.40;;;;;;4926623;28;86952;-83
2023/01/25 11:24:57;;;;;;;69.05;27.42;;;21.10;53.40;;;;;;4927112;28;88158;-84
2023/01/25 11:27:33;;;;;;;73.90;27.05;;;21.10;52.80;;;;;;4920357;28;88011;-83
2023/01/25 11:30:24;;;;;;;71.22;25.45;;;21.10;52.30;;;;;;4922313;28;88156;-84
2023/01/25 11:32:49;;;;;;;75.68;28.08;;;21.00;52.60;;;;;;4917708;28;87062;-84
2023/01/25 11:35:23;;;;;;;68.70;25.73;;;21.00;53.00;;;;;;4918774;28;90387;-81
2023/01/25 11:38:06;;;;;;;74.35;26.42;;;21.10;53.10;;;;;;4931060;28;88676;-83
2023/01/25 11:40:47;;;;;;;63.40;24.42;;;21.10;53.50;;;;;;4978396;28;87255;-83
2023/01/25 11:43:45;;;;;;;63.47;25.13;;;21.20;53.70;;;;;;4986820;28;87034;-83
2023/01/25 11:46:29;;;;;;;73.32;26.25;;;21.20;53.70;;;;;;4982013;28;88578;-83
2023/01/25 11:49:32;;;;;;;60.78;25.95;;;21.30;53.70;;;;;;4984385;28;88252;-84
2023/01/25 11:52:30;;;;;;;56.08;24.05;;;21.40;53.60;;;;;;4976848;28;87098;-84
2023/01/25 11:55:14;;;;;;;55.70;22.40;;;21.50;53.70;;;;;;4991614;28;88061;-86
2023/01/25 11:57:56;;;;;;;59.22;24.05;;;21.40;53.60;;;;;;4993706;28;89653;-84
2023/01/25 12:00:30;;;;;;;55.05;23.08;;;21.40;53.80;;;;;;4980497;28;88224;-85
2023/01/25 12:03:14;;;;;;;57.60;23.90;;;21.50;53.80;;;;;;4988128;28;86960;-85
2023/01/25 12:05:58;;;;;;;54.58;21.55;;;21.50;54.00;;;;;;4978861;28;87563;-85
2023/01/25 12:08:44;;;;;;;54.40;22.15;;;21.50;52.60;;;;;;4988828;28;88614;-83
2023/01/25 12:11:43;;;;;;;55.33;22.33;;;21.40;53.30;;;;;;4988055;28;90096;-84
2023/01/25 12:14:49;;;;;;;50.88;23.23;;;21.40;53.30;;;;;;4985660;28;88321;-83
2023/01/25 12:17:25;;;;;;;45.75;21.23;;;21.40;53.60;;;;;;4991573;28;91054;-84
2023/01/25 12:20:30;;;;;;;51.05;20.75;;;21.40;53.60;;;;;;4993594;28;87442;-85
2023/01/25 12:23:30;;;;;;;46.03;20.35;;;21.40;53.90;;;;;;4994036;28;93380;-85
2023/01/25 12:26:10;;;;;;;49.60;20.65;;;21.50;54.00;;;;;;4963078;28;88245;-84
2023/01/25 12:28:45;;;;;;;43.70;20.38;;;21.50;54.10;;;;;;4972743;28;87476;-84
2023/01/25 12:31:23;;;;;;;50.60;20.50;;;21.60;54.00;;;;;;4954906;28;88360;-83
2023/01/25 12:34:02;;;;;;;46.75;20.20;;;21.60;53.90;;;;;;4968175;28;88457;-84
2023/01/25 12:36:43;;;;;;;47.00;20.33;;;21.60;54.00;;;;;;4958941;28;86949;-82
2023/01/25 12:39:16;;;;;;;49.20;20.77;;;21.60;54.10;;;;;;4964091;28;88001;-82
2023/01/25 12:41:50;;;;;;;45.22;20.65;;;21.60;54.20;;;;;;4963803;28;88397;-82
2023/01/25 12:44:24;;;;;;;47.70;21.00;;;21.50;54.20;;;;;;4962987;28;88554;-81
2023/01/25 12:47:23;;;;;;;47.85;19.30;;;21.50;54.30;;;;;;4972689;28;86841;-82
2023/01/25 12:50:03;;;;;;;44.70;18.70;;;21.40;54.30;;;;;;4966657;28;93550;-82
2023/01/25 12:52:31;;;;;;;46.22;19.77;;;21.40;54.50;;;;;;4970088;28;88593;-83
2023/01/25 12:55:11;;;;;;;43.67;18.70;;;21.50;54.80;;;;;;4960543;28;89188;-81
2023/01/25 12:58:13;;;;;;;44.53;19.10;;;21.50;53.90;;;;;;4958904;28;87236;-81